createdAt,value
2022-09-04T00:00:59.976Z,102758.59
2022-09-04T00:02:24.787Z,102747.22
2022-09-04T00:03:38.587Z,102760.56
2022-09-04T00:05:25.462Z,102761.44
2022-09-04T00:06:34.134Z,102763.16
2022-09-04T00:07:48.910Z,102757.31
2022-09-04T00:09:27.042Z,102754.59
2022-09-04T00:10:50.584Z,102756.03
2022-09-04T00:12:26.777Z,102757.59
2022-09-04T00:13:37.014Z,102761.72
2022-09-04T00:14:57.370Z,102760.41
2022-09-04T00:16:20.150Z,102762.84
2022-09-04T00:17:41.575Z,102755.66
2022-09-04T00:18:57.952Z,102769.66
2022-09-04T00:20:06.214Z,102760.50
2022-09-04T00:21:21.755Z,102766.44
2022-09-04T00:22:33.978Z,102768.44
2022-09-04T00:23:45.025Z,102767.59
2022-09-04T00:25:08.238Z,102775.81
2022-09-04T00:26:26.060Z,102773.00
2022-09-04T00:27:36.011Z,102777.53
2022-09-04T00:29:04.210Z,102765.72
2022-09-04T00:30:14.804Z,102774.13
2022-09-04T00:31:41.466Z,102774.72
2022-09-04T00:33:35.001Z,102768.00
2022-09-04T00:34:58.371Z,102772.84
2022-09-04T00:36:03.551Z,102770.41
2022-09-04T00:37:09.451Z,102763.13
2022-09-04T00:38:16.770Z,102769.53
2022-09-04T00:39:34.563Z,102768.69
2022-09-04T00:40:44.726Z,102767.81
2022-09-04T00:42:05.824Z,102772.84
2022-09-04T00:43:37.691Z,102769.97
2022-09-04T00:44:53.152Z,102778.34
2022-09-04T00:46:07.105Z,102776.66
2022-09-04T00:47:35.043Z,102771.25
2022-09-04T00:49:11.382Z,102775.53
2022-09-04T00:50:37.258Z,102773.56
2022-09-04T00:51:53.195Z,102777.53
2022-09-04T00:53:26.242Z,102773.81
2022-09-04T00:54:52.810Z,102779.50
2022-09-04T00:56:22.356Z,102781.06
2022-09-04T00:57:55.162Z,102784.63
2022-09-04T00:59:18.566Z,102789.16
2022-09-04T01:00:22.138Z,102774.44
2022-09-04T01:01:28.314Z,102783.97
2022-09-04T01:02:41.904Z,102787.81
2022-09-04T01:04:21.206Z,102796.38
2022-09-04T01:05:53.429Z,102796.81
2022-09-04T01:07:07.452Z,102790.69
2022-09-04T01:08:56.627Z,102791.56
2022-09-04T01:10:23.935Z,102768.03
2022-09-04T01:11:43.928Z,102789.72
2022-09-04T01:13:09.067Z,102791.69
2022-09-04T01:14:48.685Z,102788.28
2022-09-04T01:16:32.183Z,102790.59
2022-09-04T01:17:41.766Z,102794.66
2022-09-04T01:18:53.980Z,102777.69
2022-09-04T01:20:20.409Z,102786.50
2022-09-04T01:21:35.886Z,102790.78
2022-09-04T01:23:14.991Z,102788.94
2022-09-04T01:24:25.574Z,102793.50
2022-09-04T01:26:20.976Z,102786.84
2022-09-04T01:27:43.654Z,102795.06
2022-09-04T01:29:03.843Z,102796.31
2022-09-04T01:30:20.202Z,102791.06
2022-09-04T01:32:10.162Z,102795.59
2022-09-04T01:33:40.918Z,102798.63
2022-09-04T01:35:05.491Z,102796.19
2022-09-04T01:36:12.981Z,102794.03
2022-09-04T01:37:28.924Z,102792.44
2022-09-04T01:38:35.819Z,102798.22
2022-09-04T01:39:40.184Z,102792.09
2022-09-04T01:41:14.173Z,102799.94
2022-09-04T01:42:23.763Z,102786.97
2022-09-04T01:43:26.526Z,102803.06
2022-09-04T01:44:30.058Z,102794.63
2022-09-04T01:46:14.682Z,102796.06
2022-09-04T01:47:45.767Z,102787.56
2022-09-04T01:49:11.972Z,102791.72
2022-09-04T01:50:19.302Z,102785.00
2022-09-04T01:51:54.835Z,102793.09
2022-09-04T01:53:01.993Z,102792.25
2022-09-04T01:54:37.883Z,102796.94
2022-09-04T01:55:58.575Z,102791.38
2022-09-04T01:57:07.987Z,102792.63
2022-09-04T01:58:24.487Z,102792.06
2022-09-04T01:59:32.891Z,102798.47
2022-09-04T02:00:46.023Z,102788.91
2022-09-04T02:02:02.049Z,102788.19
2022-09-04T02:03:07.175Z,102796.13
2022-09-04T02:04:18.356Z,102800.81
2022-09-04T02:05:42.670Z,102799.28
2022-09-04T02:06:54.571Z,102806.81
2022-09-04T02:08:14.174Z,102797.13
2022-09-04T02:09:36.475Z,102796.88
2022-09-04T02:12:08.717Z,102798.84
2022-09-04T02:13:10.654Z,102805.13
2022-09-04T02:14:21.639Z,102803.78
2022-09-04T02:15:49.467Z,102801.53
2022-09-04T02:16:56.394Z,102803.53
2022-09-04T02:18:12.538Z,102794.81
2022-09-04T02:19:31.687Z,102797.41
2022-09-04T02:20:34.066Z,102796.78
2022-09-04T02:22:23.906Z,102792.59
2022-09-04T02:23:38.073Z,102798.84
2022-09-04T02:25:06.274Z,102801.44
2022-09-04T02:26:17.430Z,102802.53
2022-09-04T02:27:29.967Z,102805.59
2022-09-04T02:28:31.759Z,102803.91
2022-09-04T02:29:52.047Z,102806.09
2022-09-04T02:31:09.313Z,102805.88
2022-09-04T02:32:20.544Z,102797.91
2022-09-04T02:33:39.658Z,102801.56
2022-09-04T02:34:47.241Z,102804.28
2022-09-04T02:36:22.472Z,102799.88
2022-09-04T02:37:48.683Z,102809.28
2022-09-04T02:38:59.412Z,102773.91
2022-09-04T02:40:08.132Z,102808.69
2022-09-04T02:41:12.678Z,102800.13
2022-09-04T02:42:32.402Z,102796.72
2022-09-04T02:43:44.735Z,102801.97
2022-09-04T02:44:49.276Z,102796.72
2022-09-04T02:46:16.187Z,102798.69
2022-09-04T02:47:31.083Z,102789.34
2022-09-04T02:48:41.891Z,102794.00
2022-09-04T02:50:07.865Z,102793.03
2022-09-04T02:51:18.777Z,102805.53
2022-09-04T02:52:39.304Z,102796.44
2022-09-04T02:53:52.764Z,102803.09
2022-09-04T02:55:08.405Z,102805.66
2022-09-04T02:56:39.788Z,102805.53
2022-09-04T02:57:55.233Z,102812.75
2022-09-04T02:59:16.027Z,102807.50
2022-09-04T03:00:21.534Z,102799.19
2022-09-04T03:01:45.403Z,102804.91
2022-09-04T03:03:03.868Z,102807.75
2022-09-04T03:04:09.282Z,102808.88
2022-09-04T03:05:26.280Z,102809.75
2022-09-04T03:06:44.559Z,102810.97
2022-09-04T03:08:16.821Z,102809.84
2022-09-04T03:09:33.856Z,102807.03
2022-09-04T03:10:44.122Z,102816.25
2022-09-04T03:11:52.063Z,102808.25
2022-09-04T03:13:09.896Z,102810.50
2022-09-04T03:14:43.422Z,102809.75
2022-09-04T03:15:54.722Z,102810.97
2022-09-04T03:17:26.161Z,102809.75
2022-09-04T03:18:37.878Z,102806.28
2022-09-04T03:20:04.027Z,102809.97
2022-09-04T03:21:17.414Z,102792.13
2022-09-04T03:22:47.545Z,102801.41
2022-09-04T03:24:11.158Z,102791.75
2022-09-04T03:25:34.403Z,102806.28
2022-09-04T03:26:42.147Z,102801.16
2022-09-04T03:27:43.874Z,102794.09
2022-09-04T03:29:01.303Z,102805.34
2022-09-04T03:30:04.016Z,102804.63
2022-09-04T03:31:31.926Z,102807.06
2022-09-04T03:32:36.730Z,102807.22
2022-09-04T03:33:46.474Z,102799.50
2022-09-04T03:34:56.646Z,102798.78
2022-09-04T03:36:08.096Z,102811.16
2022-09-04T03:37:26.932Z,102798.50
2022-09-04T03:38:38.705Z,102803.91
2022-09-04T03:39:56.087Z,102805.63
2022-09-04T03:41:06.315Z,102804.78
2022-09-04T03:42:31.001Z,102810.19
2022-09-04T03:43:54.564Z,102809.03
2022-09-04T03:45:27.295Z,102814.19
2022-09-04T03:46:58.005Z,102813.91
2022-09-04T03:48:02.698Z,102810.75
2022-09-04T03:49:15.192Z,102814.69
2022-09-04T03:50:43.375Z,102813.72
2022-09-04T03:52:13.031Z,102814.44
2022-09-04T03:53:30.841Z,102811.88
2022-09-04T03:54:59.394Z,102823.41
2022-09-04T03:56:26.860Z,102801.34
2022-09-04T03:57:55.026Z,102818.13
2022-09-04T03:59:05.074Z,102802.47
2022-09-04T04:00:20.070Z,102821.09
2022-09-04T04:01:31.194Z,102817.81
2022-09-04T04:02:35.894Z,102814.50
2022-09-04T04:03:55.850Z,102816.94
2022-09-04T04:05:12.943Z,102818.91
2022-09-04T04:06:27.885Z,102807.91
2022-09-04T04:07:52.653Z,102818.91
2022-09-04T04:09:12.855Z,102819.88
2022-09-04T04:10:33.632Z,102819.63
2022-09-04T04:11:46.366Z,102819.03
2022-09-04T04:13:14.333Z,102820.50
2022-09-04T04:14:25.118Z,102817.19
2022-09-04T04:15:42.922Z,102827.97
2022-09-04T04:17:01.275Z,102823.69
2022-09-04T04:18:30.882Z,102825.75
2022-09-04T04:19:51.727Z,102824.91
2022-09-04T04:21:01.369Z,102829.09
2022-09-04T04:22:17.000Z,102829.34
2022-09-04T04:24:09.690Z,102829.19
2022-09-04T04:25:35.598Z,102830.31
2022-09-04T04:26:55.729Z,102829.69
2022-09-04T04:28:03.416Z,102839.88
2022-09-04T04:29:15.920Z,102833.91
2022-09-04T04:30:17.921Z,102836.13
2022-09-04T04:31:45.849Z,102831.47
2022-09-04T04:33:20.674Z,102838.41
2022-09-04T04:34:38.478Z,102844.44
2022-09-04T04:35:58.885Z,102852.38
2022-09-04T04:37:11.621Z,102849.19
2022-09-04T04:38:41.727Z,102852.63
2022-09-04T04:39:54.366Z,102846.50
2022-09-04T04:41:11.151Z,102843.81
2022-09-04T04:42:12.822Z,102843.22
2022-09-04T04:43:44.535Z,102841.63
2022-09-04T04:45:27.873Z,102842.25
2022-09-04T04:46:44.889Z,102842.72
2022-09-04T04:48:17.639Z,102815.53
2022-09-04T04:49:34.255Z,102846.66
2022-09-04T04:50:42.835Z,102847.63
2022-09-04T04:52:15.978Z,102844.31
2022-09-04T04:53:52.180Z,102849.34
2022-09-04T04:55:06.360Z,102839.81
2022-09-04T04:56:26.744Z,102853.75
2022-09-04T04:57:48.380Z,102845.94
2022-09-04T04:59:13.943Z,102850.59
2022-09-04T05:00:25.210Z,102854.28
2022-09-04T05:01:59.040Z,102855.97
2022-09-04T05:03:15.162Z,102851.56
2022-09-04T05:04:37.990Z,102853.41
2022-09-04T05:05:50.047Z,102857.94
2022-09-04T05:07:35.596Z,102857.69
2022-09-04T05:08:43.384Z,102861.13
2022-09-04T05:09:45.130Z,102864.19
2022-09-04T05:11:00.474Z,102855.50
2022-09-04T05:12:20.666Z,102858.22
2022-09-04T05:13:31.082Z,102862.72
2022-09-04T05:14:40.051Z,102855.50
2022-09-04T05:16:09.278Z,102855.63
2022-09-04T05:18:12.502Z,102867.34
2022-09-04T05:19:32.530Z,102873.09
2022-09-04T05:20:44.426Z,102840.06
2022-09-04T05:22:23.371Z,102863.19
2022-09-04T05:23:46.000Z,102873.88
2022-09-04T05:25:06.381Z,102877.41
2022-09-04T05:26:53.676Z,102872.75
2022-09-04T05:28:15.242Z,102875.59
2022-09-04T05:29:19.987Z,102874.72
2022-09-04T05:30:56.054Z,102871.28
2022-09-04T05:32:22.461Z,102869.31
2022-09-04T05:33:34.678Z,102879.53
2022-09-04T05:35:11.628Z,102878.03
2022-09-04T05:36:52.339Z,102877.31
2022-09-04T05:38:20.734Z,102880.72
2022-09-04T05:39:54.825Z,102881.09
2022-09-04T05:41:06.224Z,102886.38
2022-09-04T05:42:22.298Z,102873.41
2022-09-04T05:43:57.682Z,102876.56
2022-09-04T05:45:05.562Z,102872.41
2022-09-04T05:46:36.515Z,102871.53
2022-09-04T05:47:46.395Z,102877.09
2022-09-04T05:49:03.359Z,102875.59
2022-09-04T05:50:26.583Z,102870.97
2022-09-04T05:51:49.462Z,102878.28
2022-09-04T05:53:09.678Z,102882.59
2022-09-04T05:54:29.356Z,102878.91
2022-09-04T05:55:49.808Z,102878.28
2022-09-04T05:57:00.473Z,102878.28
2022-09-04T05:58:11.135Z,102873.16
2022-09-04T05:59:28.312Z,102881.97
2022-09-04T06:01:00.578Z,102887.50
2022-09-04T06:02:17.099Z,102892.53
2022-09-04T06:04:09.553Z,102883.22
2022-09-04T06:05:29.467Z,102890.41
2022-09-04T06:06:50.679Z,102877.56
2022-09-04T06:08:00.867Z,102898.88
2022-09-04T06:09:19.421Z,102892.53
2022-09-04T06:10:46.784Z,102901.72
2022-09-04T06:11:57.352Z,102892.53
2022-09-04T06:13:36.387Z,102894.84
2022-09-04T06:15:03.594Z,102895.31
2022-09-04T06:16:25.964Z,102893.22
2022-09-04T06:17:50.143Z,102887.84
2022-09-04T06:19:12.090Z,102897.75
2022-09-04T06:20:36.791Z,102890.38
2022-09-04T06:22:00.114Z,102883.84
2022-09-04T06:23:10.771Z,102895.13
2022-09-04T06:24:33.788Z,102891.69
2022-09-04T06:25:35.489Z,102898.19
2022-09-04T06:27:14.999Z,102901.50
2022-09-04T06:28:16.750Z,102899.13
2022-09-04T06:29:28.747Z,102890.44
2022-09-04T06:30:54.482Z,102891.41
2022-09-04T06:31:56.863Z,102894.69
2022-09-04T06:33:35.090Z,102904.13
2022-09-04T06:34:36.787Z,102893.78
2022-09-04T06:36:02.846Z,102900.06
2022-09-04T06:37:20.141Z,102912.88
2022-09-04T06:38:42.719Z,102910.78
2022-09-04T06:40:06.508Z,102914.94
2022-09-04T06:41:45.458Z,102906.19
2022-09-04T06:43:13.962Z,102920.16
2022-09-04T06:44:29.818Z,102910.09
2022-09-04T06:45:43.576Z,102917.03
2022-09-04T06:47:00.926Z,102917.91
2022-09-04T06:48:14.888Z,102922.19
2022-09-04T06:49:22.541Z,102921.22
2022-09-04T06:50:24.804Z,102922.06
2022-09-04T06:51:45.399Z,102926.22
2022-09-04T06:53:21.392Z,102926.66
2022-09-04T06:54:56.085Z,102919.03
2022-09-04T06:56:06.871Z,102926.84
2022-09-04T06:57:55.487Z,102933.13
2022-09-04T06:59:27.791Z,102929.66
2022-09-04T07:00:39.176Z,102928.09
2022-09-04T07:02:04.558Z,102934.06
2022-09-04T07:03:17.204Z,102930.81
2022-09-04T07:04:37.310Z,102929.09
2022-09-04T07:05:44.763Z,102934.34
2022-09-04T07:06:52.796Z,102933.50
2022-09-04T07:07:57.465Z,102941.63
2022-09-04T07:09:31.770Z,102935.22
2022-09-04T07:10:37.009Z,102939.22
2022-09-04T07:12:09.843Z,102940.94
2022-09-04T07:13:23.659Z,102938.09
2022-09-04T07:14:34.429Z,102943.50
2022-09-04T07:15:57.194Z,102943.50
2022-09-04T07:17:14.554Z,102934.97
2022-09-04T07:18:52.069Z,102939.28
2022-09-04T07:20:19.246Z,102936.56
2022-09-04T07:21:40.283Z,102943.69
2022-09-04T07:22:56.500Z,102929.84
2022-09-04T07:24:29.639Z,102936.84
2022-09-04T07:25:44.257Z,102940.72
2022-09-04T07:26:53.430Z,102942.81
2022-09-04T07:28:18.902Z,102942.31
2022-09-04T07:29:30.361Z,102947.84
2022-09-04T07:30:41.322Z,102944.41
2022-09-04T07:32:02.311Z,102944.16
2022-09-04T07:33:32.083Z,102947.28
2022-09-04T07:34:57.754Z,102951.72
2022-09-04T07:36:14.541Z,102955.28
2022-09-04T07:37:30.585Z,102958.13
2022-09-04T07:38:44.468Z,102949.56
2022-09-04T07:40:14.071Z,102951.72
2022-09-04T07:41:28.389Z,102950.72
2022-09-04T07:42:51.078Z,102960.44
2022-09-04T07:44:05.116Z,102949.28
2022-09-04T07:45:22.636Z,102960.53
2022-09-04T07:46:47.024Z,102955.03
2022-09-04T07:47:56.448Z,102962.84
2022-09-04T07:49:24.054Z,102949.59
2022-09-04T07:50:33.110Z,102956.47
2022-09-04T07:51:43.168Z,102961.16
2022-09-04T07:52:53.902Z,102961.00
2022-09-04T07:54:22.917Z,102971.81
2022-09-04T07:55:57.971Z,102963.03
2022-09-04T07:57:38.020Z,102967.44
2022-09-04T07:58:56.746Z,102967.34
2022-09-04T08:00:08.625Z,102971.03
2022-09-04T08:01:31.447Z,102963.03
2022-09-04T08:03:13.619Z,102969.03
2022-09-04T08:04:45.503Z,102974.44
2022-09-04T08:06:22.174Z,102966.06
2022-09-04T08:07:33.080Z,102968.06
2022-09-04T08:09:10.065Z,102975.88
2022-09-04T08:10:18.737Z,102980.56
2022-09-04T08:11:45.602Z,102973.00
2022-09-04T08:13:15.168Z,102981.69
2022-09-04T08:14:33.143Z,102983.41
2022-09-04T08:15:47.441Z,102978.28
2022-09-04T08:17:21.011Z,102980.13
2022-09-04T08:18:30.391Z,102987.81
2022-09-04T08:19:44.239Z,102980.13
2022-09-04T08:20:58.127Z,102980.13
2022-09-04T08:22:01.519Z,102983.09
2022-09-04T08:23:15.454Z,102985.81
2022-09-04T08:24:53.632Z,102984.56
2022-09-04T08:26:25.596Z,102983.28
2022-09-04T08:27:44.193Z,102988.69
2022-09-04T08:29:00.320Z,102982.56
2022-09-04T08:30:08.503Z,102977.44
2022-09-04T08:31:30.656Z,102979.84
2022-09-04T08:32:43.722Z,102982.56
2022-09-04T08:34:00.651Z,102984.56
2022-09-04T08:35:23.511Z,102977.16
2022-09-04T08:36:48.511Z,102980.69
2022-09-04T08:38:11.705Z,102980.56
2022-09-04T08:39:27.559Z,102979.59
2022-09-04T08:40:52.262Z,102973.91
2022-09-04T08:42:26.442Z,102975.34
2022-09-04T08:43:33.994Z,102974.91
2022-09-04T08:45:24.497Z,102977.31
2022-09-04T08:46:49.419Z,102982.75
2022-09-04T08:48:32.373Z,102975.34
2022-09-04T08:50:02.251Z,102975.34
2022-09-04T08:51:34.310Z,102968.78
2022-09-04T08:53:04.967Z,102967.34
2022-09-04T08:54:35.119Z,102980.03
2022-09-04T08:55:49.226Z,102968.22
2022-09-04T08:56:56.751Z,102969.50
2022-09-04T08:58:26.009Z,102973.91
2022-09-04T09:00:09.903Z,102968.22
2022-09-04T09:01:59.317Z,102969.66
2022-09-04T09:03:30.767Z,102972.25
2022-09-04T09:05:00.197Z,102973.34
2022-09-04T09:06:30.462Z,102968.78
2022-09-04T09:08:13.615Z,102971.25
2022-09-04T09:09:33.332Z,102973.97
2022-09-04T09:10:56.830Z,102973.47
2022-09-04T09:12:41.115Z,102975.91
2022-09-04T09:14:28.775Z,102964.59
2022-09-04T09:16:01.258Z,102966.69
2022-09-04T09:17:17.147Z,102973.09
2022-09-04T09:18:40.700Z,102978.63
2022-09-04T09:19:58.130Z,102969.94
2022-09-04T09:21:07.341Z,102970.94
2022-09-04T09:22:21.250Z,102973.63
2022-09-04T09:23:36.866Z,102977.19
2022-09-04T09:25:09.651Z,102976.06
2022-09-04T09:26:26.903Z,102968.66
2022-09-04T09:27:56.030Z,102974.34
2022-09-04T09:29:39.232Z,102971.09
2022-09-04T09:30:53.266Z,102971.84
2022-09-04T09:32:13.982Z,102975.50
2022-09-04T09:33:53.789Z,102971.09
2022-09-04T09:35:08.906Z,102968.38
2022-09-04T09:36:42.911Z,102971.84
2022-09-04T09:38:21.763Z,102977.13
2022-09-04T09:39:42.120Z,102972.28
2022-09-04T09:41:05.306Z,102966.56
2022-09-04T09:42:20.223Z,102970.97
2022-09-04T09:43:42.129Z,102973.97
2022-09-04T09:45:02.192Z,102969.38
2022-09-04T09:46:31.939Z,102970.84
2022-09-04T09:47:50.138Z,102956.97
2022-09-04T09:49:15.004Z,102971.56
2022-09-04T09:50:54.388Z,102969.75
2022-09-04T09:52:28.987Z,102970.47
2022-09-04T09:53:55.577Z,102972.00
2022-09-04T09:55:10.290Z,102963.47
2022-09-04T09:56:53.569Z,102974.00
2022-09-04T09:58:21.366Z,102970.03
2022-09-04T09:59:43.288Z,102968.59
2022-09-04T10:01:08.342Z,102970.31
2022-09-04T10:02:38.477Z,102968.59
2022-09-04T10:04:17.519Z,102974.59
2022-09-04T10:05:40.966Z,102973.44
2022-09-04T10:07:04.166Z,102975.44
2022-09-04T10:08:05.946Z,102976.59
2022-09-04T10:09:32.840Z,102971.44
2022-09-04T10:10:59.990Z,102970.19
2022-09-04T10:12:16.644Z,102969.59
2022-09-04T10:13:36.593Z,102970.03
2022-09-04T10:14:55.923Z,102970.47
2022-09-04T10:16:31.471Z,102969.31
2022-09-04T10:18:00.995Z,102963.63
2022-09-04T10:19:18.135Z,102968.19
2022-09-04T10:20:31.630Z,102970.03
2022-09-04T10:22:10.655Z,102971.75
2022-09-04T10:24:06.042Z,102965.06
2022-09-04T10:25:07.911Z,102966.53
2022-09-04T10:26:48.988Z,102958.94
2022-09-04T10:28:30.039Z,102966.53
2022-09-04T10:29:45.251Z,102964.81
2022-09-04T10:31:21.338Z,102968.34
2022-09-04T10:32:34.822Z,102971.22
2022-09-04T10:35:25.883Z,102973.19
2022-09-04T10:36:50.607Z,102970.22
2022-09-04T10:38:16.367Z,102938.28
2022-09-04T10:39:45.664Z,102976.63
2022-09-04T10:41:28.749Z,102971.66
2022-09-04T10:42:45.094Z,102972.66
2022-09-04T10:43:49.840Z,102978.34
2022-09-04T10:45:17.278Z,102940.97
2022-09-04T10:46:28.730Z,102976.63
2022-09-04T10:48:19.012Z,102967.25
2022-09-04T10:49:40.542Z,102972.66
2022-09-04T10:51:08.426Z,102978.78
2022-09-04T10:52:42.569Z,102971.78
2022-09-04T10:54:21.808Z,102980.34
2022-09-04T10:55:43.858Z,102971.50
2022-09-04T10:57:24.959Z,102976.78
2022-09-04T10:58:39.737Z,102972.38
2022-09-04T10:59:59.251Z,102975.19
2022-09-04T11:01:17.334Z,102973.78
2022-09-04T11:03:11.377Z,102980.06
2022-09-04T11:04:19.098Z,102972.09
2022-09-04T11:05:44.560Z,102975.38
2022-09-04T11:07:08.490Z,102965.81
2022-09-04T11:08:36.502Z,102978.34
2022-09-04T11:10:08.730Z,102982.94
2022-09-04T11:11:35.906Z,102984.19
2022-09-04T11:12:59.835Z,102983.47
2022-09-04T11:14:25.694Z,102973.81
2022-09-04T11:15:48.115Z,102977.34
2022-09-04T11:17:15.528Z,102980.66
2022-09-04T11:18:40.675Z,102978.06
2022-09-04T11:20:16.156Z,102973.09
2022-09-04T11:21:40.795Z,102973.25
2022-09-04T11:23:07.350Z,102962.97
2022-09-04T11:24:27.343Z,102977.50
2022-09-04T11:26:06.225Z,102975.69
2022-09-04T11:27:23.104Z,102979.09
2022-09-04T11:28:45.975Z,102979.97
2022-09-04T11:29:55.897Z,102980.22
2022-09-04T11:31:00.438Z,102984.06
2022-09-04T11:32:32.118Z,102982.09
2022-09-04T11:33:39.809Z,102979.22
2022-09-04T11:35:28.493Z,102987.22
2022-09-04T11:37:08.106Z,102988.38
2022-09-04T11:38:19.693Z,102988.53
2022-09-04T11:39:58.835Z,102984.94
2022-09-04T11:41:00.570Z,102988.53
2022-09-04T11:42:41.433Z,102985.94
2022-09-04T11:44:12.154Z,102977.69
2022-09-04T11:45:21.295Z,102985.81
2022-09-04T11:46:49.603Z,102982.25
2022-09-04T11:48:27.043Z,102976.69
2022-09-04T11:49:44.174Z,102985.53
2022-09-04T11:51:02.179Z,102979.53
2022-09-04T11:52:26.590Z,102973.56
2022-09-04T11:54:00.535Z,102973.56
2022-09-04T11:55:31.538Z,102985.38
2022-09-04T11:56:45.244Z,102968.16
2022-09-04T11:58:03.552Z,102976.69
2022-09-04T11:59:14.171Z,102980.25
2022-09-04T12:00:17.343Z,102977.81
2022-09-04T12:01:47.481Z,102982.13
2022-09-04T12:03:07.787Z,102979.25
2022-09-04T12:04:38.363Z,102981.84
2022-09-04T12:05:45.914Z,102973.56
2022-09-04T12:07:14.141Z,102978.97
2022-09-04T12:08:44.110Z,102974.44
2022-09-04T12:09:50.334Z,102961.91
2022-09-04T12:11:46.247Z,102968.16
2022-09-04T12:13:14.845Z,102965.88
2022-09-04T12:14:46.802Z,102966.75
2022-09-04T12:15:55.299Z,102971.56
2022-09-04T12:16:57.018Z,102963.59
2022-09-04T12:18:44.978Z,102947.91
2022-09-04T12:20:06.070Z,102974.28
2022-09-04T12:21:37.942Z,102962.44
2022-09-04T12:23:10.616Z,102964.88
2022-09-04T12:24:30.679Z,102964.75
2022-09-04T12:25:38.424Z,102962.44
2022-09-04T12:27:16.483Z,102959.91
2022-09-04T12:28:38.010Z,102962.44
2022-09-04T12:29:54.938Z,102961.59
2022-09-04T12:31:17.808Z,102966.16
2022-09-04T12:32:53.051Z,102971.28
2022-09-04T12:34:03.742Z,102964.88
2022-09-04T12:35:33.863Z,102975.16
2022-09-04T12:37:14.571Z,102968.28
2022-09-04T12:38:31.742Z,102967.31
2022-09-04T12:39:43.118Z,102965.03
2022-09-04T12:41:09.515Z,102963.03
2022-09-04T12:42:26.291Z,102974.88
2022-09-04T12:43:45.263Z,102976.69
2022-09-04T12:44:47.059Z,102976.69
2022-09-04T12:45:53.334Z,102964.44
2022-09-04T12:47:14.211Z,102976.97
2022-09-04T12:48:33.114Z,102972.28
2022-09-04T12:49:45.519Z,102969.28
2022-09-04T12:51:09.635Z,102964.16
2022-09-04T12:52:11.324Z,102968.28
2022-09-04T12:53:34.334Z,102968.56
2022-09-04T12:54:53.910Z,102981.00
2022-09-04T12:56:11.699Z,102971.00
2022-09-04T12:57:27.459Z,102971.00
2022-09-04T12:58:33.895Z,102971.88
2022-09-04T13:00:01.094Z,102969.88
2022-09-04T13:01:16.032Z,102965.34
2022-09-04T13:02:41.767Z,102964.19
2022-09-04T13:03:52.800Z,102969.75
2022-09-04T13:05:22.497Z,102966.34
2022-09-04T13:06:53.239Z,102973.31
2022-09-04T13:08:04.694Z,102973.88
2022-09-04T13:09:28.605Z,102964.19
2022-09-04T13:10:46.042Z,102972.31
2022-09-04T13:12:06.849Z,102970.59
2022-09-04T13:13:17.828Z,102973.03
2022-09-04T13:14:38.966Z,102968.47
2022-09-04T13:15:58.157Z,102970.31
2022-09-04T13:17:12.146Z,102967.75
2022-09-04T13:18:46.714Z,102971.66
2022-09-04T13:20:00.629Z,102964.53
2022-09-04T13:21:18.623Z,102966.22
2022-09-04T13:22:46.475Z,102968.06
2022-09-04T13:23:57.358Z,102967.22
2022-09-04T13:25:22.247Z,102962.09
2022-09-04T13:26:57.708Z,102969.66
2022-09-04T13:28:03.343Z,102967.94
2022-09-04T13:29:19.483Z,102963.66
2022-09-04T13:30:24.616Z,102963.19
2022-09-04T13:31:33.548Z,102964.81
2022-09-04T13:33:01.371Z,102965.66
2022-09-04T13:34:21.313Z,102975.06
2022-09-04T13:35:38.903Z,102962.38
2022-09-04T13:36:54.309Z,102964.22
2022-09-04T13:38:06.702Z,102962.53
2022-09-04T13:39:22.292Z,102960.81
2022-09-04T13:40:26.687Z,102959.94
2022-09-04T13:41:54.752Z,102969.94
2022-09-04T13:43:03.617Z,102959.66
2022-09-04T13:44:14.474Z,102968.78
2022-09-04T13:45:23.890Z,102962.66
2022-09-04T13:46:33.394Z,102955.78
2022-09-04T13:47:38.490Z,102970.06
2022-09-04T13:48:47.414Z,102964.53
2022-09-04T13:49:56.707Z,102952.50
2022-09-04T13:51:13.914Z,102963.53
2022-09-04T13:52:24.415Z,102960.53
2022-09-04T13:53:33.096Z,102966.94
2022-09-04T13:54:42.616Z,102966.94
2022-09-04T13:55:54.403Z,102965.06
2022-09-04T13:57:12.238Z,102965.78
2022-09-04T13:58:20.216Z,102965.66
2022-09-04T13:59:23.534Z,102954.41
2022-09-04T14:00:28.692Z,102963.22
2022-09-04T14:01:33.687Z,102965.06
2022-09-04T14:02:37.002Z,102969.66
2022-09-04T14:03:50.385Z,102941.53
2022-09-04T14:05:04.830Z,102962.25
2022-09-04T14:06:11.227Z,102971.06
2022-09-04T14:07:44.882Z,102954.81
2022-09-04T14:09:05.598Z,102964.66
2022-09-04T14:10:20.285Z,102961.66
2022-09-04T14:11:40.525Z,102967.66
2022-09-04T14:13:08.983Z,102964.81
2022-09-04T14:14:37.650Z,102963.09
2022-09-04T14:15:48.577Z,102969.38
2022-09-04T14:16:52.763Z,102962.53
2022-09-04T14:18:25.298Z,102965.38
2022-09-04T14:19:33.080Z,102965.97
2022-09-04T14:21:01.478Z,102963.09
2022-09-04T14:22:11.261Z,102964.97
2022-09-04T14:23:26.023Z,102963.38
2022-09-04T14:24:56.011Z,102961.25
2022-09-04T14:26:19.514Z,102959.09
2022-09-04T14:27:31.176Z,102959.53
2022-09-04T14:29:32.480Z,102957.81
2022-09-04T14:30:58.592Z,102963.50
2022-09-04T14:32:24.334Z,102963.22
2022-09-04T14:33:44.331Z,102969.94
2022-09-04T14:35:12.951Z,102960.81
2022-09-04T14:36:39.046Z,102960.69
2022-09-04T14:38:02.437Z,102959.25
2022-09-04T14:39:16.123Z,102959.09
2022-09-04T14:40:34.001Z,102957.38
2022-09-04T14:41:43.078Z,102966.50
2022-09-04T14:43:17.159Z,102960.25
2022-09-04T14:44:40.061Z,102953.13
2022-09-04T14:45:46.951Z,102966.22
2022-09-04T14:47:14.192Z,102965.69
2022-09-04T14:48:17.815Z,102965.38
2022-09-04T14:49:24.796Z,102962.25
2022-09-04T14:50:29.510Z,102963.09
2022-09-04T14:51:37.631Z,102954.53
2022-09-04T14:52:56.792Z,102958.38
2022-09-04T14:54:02.103Z,102950.53
2022-09-04T14:55:04.653Z,102956.66
2022-09-04T14:56:12.562Z,102961.25
2022-09-04T14:57:59.568Z,102959.69
2022-09-04T14:59:14.102Z,102965.66
2022-09-04T15:00:18.874Z,102951.69
2022-09-04T15:01:25.244Z,102960.81
2022-09-04T15:02:45.828Z,102958.53
2022-09-04T15:04:19.054Z,102956.53
2022-09-04T15:05:34.201Z,102964.53
2022-09-04T15:07:10.828Z,102957.22
2022-09-04T15:08:39.925Z,102955.97
2022-09-04T15:09:47.008Z,102938.84
2022-09-04T15:10:54.730Z,102956.41
2022-09-04T15:12:24.336Z,102951.69
2022-09-04T15:13:33.611Z,102954.28
2022-09-04T15:14:39.407Z,102952.81
2022-09-04T15:15:46.761Z,102941.84
2022-09-04T15:16:54.395Z,102955.69
2022-09-04T15:18:15.952Z,102955.41
2022-09-04T15:19:26.578Z,102959.81
2022-09-04T15:20:31.784Z,102943.44
2022-09-04T15:21:55.143Z,102956.22
2022-09-04T15:23:01.510Z,102947.41
2022-09-04T15:24:15.489Z,102950.56
2022-09-04T15:25:58.872Z,102953.28